createdAt,value
2023-04-18T00:01:14.975Z,102983.31
2023-04-18T00:03:46.092Z,102981.50
2023-04-18T00:06:16.409Z,102983.75
2023-04-18T00:08:48.599Z,102979.69
2023-04-18T00:11:18.154Z,102989.03
2023-04-18T00:13:47.673Z,102991.56
2023-04-18T00:16:17.372Z,102997.47
2023-04-18T00:18:48.279Z,102988.72
2023-04-18T00:21:17.911Z,102993.22
2023-04-18T00:23:50.003Z,103000.47
2023-04-18T00:26:19.497Z,102996.84
2023-04-18T00:28:49.057Z,103008.31
2023-04-18T00:31:18.629Z,103002.59
2023-04-18T00:33:48.231Z,103003.44
2023-04-18T00:36:17.796Z,103002.44
2023-04-18T00:38:49.893Z,103007.56
2023-04-18T00:41:19.465Z,103002.00
2023-04-18T00:43:48.962Z,102999.13
2023-04-18T00:46:18.517Z,102999.28
2023-04-18T00:48:48.095Z,103003.44
2023-04-18T00:51:18.177Z,103002.53
2023-04-18T00:53:50.604Z,103000.41
2023-04-18T00:56:20.151Z,103006.44
2023-04-18T00:58:49.677Z,103014.97
2023-04-18T01:01:19.284Z,103015.84
2023-04-18T01:03:48.813Z,103010.59
2023-04-18T01:06:18.319Z,103011.44
2023-04-18T01:08:50.446Z,103012.97
2023-04-18T01:11:20.175Z,103019.56
2023-04-18T01:14:01.740Z,103017.44
2023-04-18T01:16:32.924Z,103027.03
2023-04-18T01:19:02.687Z,103026.28
2023-04-18T01:21:34.056Z,103025.34
2023-04-18T01:24:15.289Z,103023.09
2023-04-18T01:26:47.741Z,103030.00
2023-04-18T01:29:17.399Z,103034.81
2023-04-18T01:31:47.058Z,103028.72
2023-04-18T01:34:17.981Z,103038.81
2023-04-18T01:36:47.869Z,103042.00
2023-04-18T01:39:20.385Z,103042.66
2023-04-18T01:41:49.877Z,103042.78
2023-04-18T01:44:19.402Z,103045.97
2023-04-18T01:46:48.990Z,103040.56
2023-04-18T01:49:19.126Z,103043.13
2023-04-18T01:51:48.606Z,103042.66
2023-04-18T01:54:20.725Z,103046.59
2023-04-18T01:56:50.229Z,103048.00
2023-04-18T01:59:19.748Z,103046.66
2023-04-18T02:01:49.454Z,103050.25
2023-04-18T02:04:19.101Z,103048.44
2023-04-18T02:06:48.622Z,103046.59
2023-04-18T02:09:21.182Z,103050.25
2023-04-18T02:11:50.735Z,103048.75
2023-04-18T02:14:20.256Z,103052.16
2023-04-18T02:16:49.774Z,103052.38
2023-04-18T02:19:19.300Z,103047.84
2023-04-18T02:21:48.769Z,103051.06
2023-04-18T02:24:21.259Z,103051.59
2023-04-18T02:26:50.809Z,103056.28
2023-04-18T02:29:20.345Z,103052.56
2023-04-18T02:31:49.847Z,103049.44
2023-04-18T02:34:19.386Z,103059.66
2023-04-18T02:36:49.834Z,103052.09
2023-04-18T02:39:21.870Z,103047.41
2023-04-18T02:41:51.378Z,103044.53
2023-04-18T02:44:20.897Z,103053.16
2023-04-18T02:46:50.426Z,103051.03
2023-04-18T02:49:20.011Z,103052.69
2023-04-18T02:51:49.512Z,103052.78
2023-04-18T02:54:21.582Z,103061.50
2023-04-18T02:56:51.044Z,103065.53
2023-04-18T02:59:20.646Z,103068.47
2023-04-18T03:01:50.184Z,103062.16
2023-04-18T03:04:19.758Z,103069.47
2023-04-18T03:06:50.222Z,103075.00
2023-04-18T03:09:22.278Z,103074.66
2023-04-18T03:11:51.792Z,103082.06
2023-04-18T03:14:21.368Z,103072.44
2023-04-18T03:16:53.057Z,103084.44
2023-04-18T03:19:24.599Z,103082.06
2023-04-18T03:21:54.067Z,103082.16
2023-04-18T03:24:26.273Z,103090.13
2023-04-18T03:26:55.770Z,103082.84
2023-04-18T03:29:25.304Z,103095.47
2023-04-18T03:31:54.867Z,103089.81
2023-04-18T03:34:24.358Z,103093.34
2023-04-18T03:36:53.897Z,103104.38
2023-04-18T03:39:25.990Z,103089.75
2023-04-18T03:41:55.490Z,103106.28
2023-04-18T03:44:24.956Z,103104.38
2023-04-18T03:46:54.464Z,103108.50
2023-04-18T03:49:23.926Z,103113.59
2023-04-18T03:51:53.434Z,103119.44
2023-04-18T03:54:22.991Z,103120.28
2023-04-18T03:56:55.130Z,103129.00
2023-04-18T03:59:24.686Z,103121.41
2023-04-18T04:01:54.269Z,103118.59
2023-04-18T04:04:23.983Z,103120.66
2023-04-18T04:06:53.886Z,103123.28
2023-04-18T04:09:23.362Z,103124.72
2023-04-18T04:11:55.461Z,103124.28
2023-04-18T04:14:24.953Z,103122.81
2023-04-18T04:16:54.679Z,103122.41
2023-04-18T04:19:24.169Z,103126.63
2023-04-18T04:21:53.766Z,103120.28
2023-04-18T04:24:23.300Z,103129.47
2023-04-18T04:26:56.454Z,103135.47
2023-04-18T04:29:26.354Z,103139.28
2023-04-18T04:31:55.925Z,103130.66
2023-04-18T04:34:25.534Z,103134.53
2023-04-18T04:36:55.084Z,103135.44
2023-04-18T04:39:24.598Z,103139.72
2023-04-18T04:41:57.744Z,103142.63
2023-04-18T04:44:27.289Z,103138.81
2023-04-18T04:46:57.181Z,103145.16
2023-04-18T04:49:26.750Z,103138.56
2023-04-18T04:51:56.704Z,103138.44
2023-04-18T04:54:26.318Z,103141.22
2023-04-18T04:56:58.422Z,103134.59
2023-04-18T04:59:27.980Z,103136.84
2023-04-18T05:01:57.594Z,103137.91
2023-04-18T05:04:27.285Z,103142.78
2023-04-18T05:06:56.932Z,103142.25
2023-04-18T05:09:26.497Z,103136.59
2023-04-18T05:11:58.768Z,103134.13
2023-04-18T05:14:28.269Z,103131.91
2023-04-18T05:16:58.437Z,103125.81
2023-04-18T05:19:28.070Z,103126.31
2023-04-18T05:21:57.625Z,103123.03
2023-04-18T05:24:27.167Z,103123.34
2023-04-18T05:26:59.220Z,103116.66
2023-04-18T05:29:28.732Z,103112.94
2023-04-18T05:31:58.274Z,103109.88
2023-04-18T05:34:27.879Z,103110.94
2023-04-18T05:36:57.373Z,103105.50
2023-04-18T05:39:26.956Z,103104.25
2023-04-18T05:41:59.020Z,103099.78
2023-04-18T05:44:28.581Z,103094.25
2023-04-18T05:46:58.089Z,103096.81
2023-04-18T05:49:27.731Z,103100.50
2023-04-18T05:51:57.783Z,103101.00
2023-04-18T05:54:27.764Z,103094.41
2023-04-18T05:57:00.191Z,103069.38
2023-04-18T05:59:30.396Z,103028.56
2023-04-18T06:02:00.289Z,103001.50
2023-04-18T06:04:29.951Z,102950.13
2023-04-18T06:06:59.671Z,102908.72
2023-04-18T06:09:29.332Z,102883.22
2023-04-18T06:12:01.701Z,102857.41
2023-04-18T06:14:31.496Z,102829.41
2023-04-18T06:17:01.149Z,102792.22
2023-04-18T06:19:30.733Z,102796.34
2023-04-18T06:22:01.487Z,102814.66
2023-04-18T06:24:31.327Z,102843.72
2023-04-18T06:27:03.520Z,102858.47
2023-04-18T06:29:33.770Z,102867.66
2023-04-18T06:32:04.180Z,102890.81
2023-04-18T06:34:33.726Z,102883.59
2023-04-18T06:37:03.316Z,102892.13
2023-04-18T06:39:33.022Z,102887.56
2023-04-18T06:42:05.413Z,102878.09
2023-04-18T06:44:36.059Z,102861.63
2023-04-18T06:47:05.882Z,102858.41
2023-04-18T06:49:35.359Z,102830.72
2023-04-18T06:52:04.887Z,102838.09
2023-04-18T06:54:34.496Z,102834.34
2023-04-18T06:57:06.734Z,102842.28
2023-04-18T06:59:37.609Z,102835.47
2023-04-18T07:02:07.191Z,102824.53
2023-04-18T07:04:36.860Z,102827.16
2023-04-18T07:07:06.767Z,102822.88
2023-04-18T07:09:36.371Z,102813.44
2023-04-18T07:12:08.924Z,102800.41
2023-04-18T07:14:38.480Z,102801.25
2023-04-18T07:17:08.056Z,102795.13
2023-04-18T07:19:37.620Z,102763.31
2023-04-18T07:22:07.163Z,102747.03
2023-04-18T07:24:36.709Z,102729.75
2023-04-18T07:27:09.671Z,102717.91
2023-04-18T07:29:45.862Z,102704.53
2023-04-18T07:32:15.588Z,102693.19
2023-04-18T07:34:45.195Z,102689.88
2023-04-18T07:37:15.255Z,102675.75
2023-04-18T07:39:44.890Z,102684.28
2023-04-18T07:42:16.963Z,102669.97
2023-04-18T07:44:47.076Z,102646.88
2023-04-18T07:47:16.689Z,102629.16
2023-04-18T07:49:46.594Z,102599.38
2023-04-18T07:52:16.160Z,102584.22
2023-04-18T07:54:45.673Z,102571.88
2023-04-18T07:57:17.795Z,102560.31
2023-04-18T07:59:47.337Z,102552.22
2023-04-18T08:02:17.065Z,102557.16
2023-04-18T08:04:47.296Z,102531.16
2023-04-18T08:07:17.130Z,102528.00
2023-04-18T08:09:46.649Z,102503.97
2023-04-18T08:12:18.784Z,102512.38
2023-04-18T08:14:48.331Z,102484.84
2023-04-18T08:17:17.887Z,102478.56
2023-04-18T08:19:47.523Z,102474.41
2023-04-18T08:22:17.033Z,102478.78
2023-04-18T08:25:01.164Z,102465.41
2023-04-18T08:27:36.414Z,102468.31
2023-04-18T08:30:07.205Z,102466.69
2023-04-18T08:32:38.033Z,102476.19
2023-04-18T08:35:08.321Z,102481.19
2023-04-18T08:37:37.996Z,102489.16
2023-04-18T08:40:08.953Z,102486.16
2023-04-18T08:42:41.149Z,102481.44
2023-04-18T08:45:12.523Z,102488.94
2023-04-18T08:47:42.346Z,102501.44
2023-04-18T08:50:13.310Z,102502.25
2023-04-18T08:52:45.119Z,102495.47
2023-04-18T08:55:14.643Z,102501.88
2023-04-18T08:57:47.642Z,102502.63
2023-04-18T09:00:19.912Z,102497.44
2023-04-18T09:02:49.633Z,102501.47
2023-04-18T09:05:20.348Z,102495.91
2023-04-18T09:07:50.893Z,102476.88
2023-04-18T09:10:29.145Z,102489.84
2023-04-18T09:13:03.282Z,102497.78
2023-04-18T09:15:33.320Z,102491.81
2023-04-18T09:18:04.049Z,102495.38
2023-04-18T09:20:40.135Z,102494.69
2023-04-18T09:23:14.830Z,102496.50
2023-04-18T09:25:48.228Z,102501.41
2023-04-18T09:28:30.812Z,102499.72
2023-04-18T09:31:01.797Z,102496.25
2023-04-18T09:33:34.842Z,102492.31
2023-04-18T09:36:20.436Z,102487.09
2023-04-18T09:38:52.087Z,102486.28
2023-04-18T09:41:23.354Z,102489.22
2023-04-18T09:44:14.321Z,102494.78
2023-04-18T09:46:47.557Z,102494.13
2023-04-18T09:49:17.815Z,102496.03
2023-04-18T09:51:47.790Z,102483.84
2023-04-18T09:54:18.627Z,102493.69
2023-04-18T09:56:50.517Z,102511.81
2023-04-18T09:59:32.126Z,102502.44
2023-04-18T10:02:02.390Z,102521.13
2023-04-18T10:04:33.751Z,102525.94
2023-04-18T10:07:03.676Z,102513.38
2023-04-18T10:09:35.534Z,102508.03
2023-04-18T10:12:05.630Z,102505.09
2023-04-18T10:14:37.993Z,102503.13
2023-04-18T10:17:07.654Z,102499.59
2023-04-18T10:19:37.152Z,102488.97
2023-04-18T10:22:06.689Z,102497.56
2023-04-18T10:24:53.698Z,102494.06
2023-04-18T10:28:00.507Z,102499.50
2023-04-18T10:30:56.121Z,102502.22
2023-04-18T10:33:34.042Z,102506.59
2023-04-18T10:36:06.955Z,102500.91
2023-04-18T10:38:38.856Z,102498.88
2023-04-18T10:41:25.265Z,102501.56
2023-04-18T10:44:18.868Z,102506.72
2023-04-18T10:47:22.590Z,102507.94
2023-04-18T10:50:01.430Z,102507.94
2023-04-18T10:52:31.755Z,102498.34
2023-04-18T10:55:11.661Z,102493.75
2023-04-18T10:57:42.512Z,102490.00
2023-04-18T11:00:16.955Z,102491.38
2023-04-18T11:02:56.099Z,102489.31
2023-04-18T11:05:27.666Z,102494.59
2023-04-18T11:07:57.424Z,102488.59
2023-04-18T11:10:28.534Z,102490.97
2023-04-18T11:13:04.588Z,102488.44
2023-04-18T11:15:40.001Z,102491.44
2023-04-18T11:18:09.679Z,102491.66
2023-04-18T11:20:41.311Z,102497.94
2023-04-18T11:23:19.735Z,102493.91
2023-04-18T11:25:49.528Z,102505.56
2023-04-18T11:28:22.013Z,102495.78
2023-04-18T11:30:54.169Z,102491.19
2023-04-18T11:33:24.953Z,102521.81
2023-04-18T11:35:59.826Z,102535.16
2023-04-18T11:38:31.767Z,102514.66
2023-04-18T11:41:01.872Z,102537.38
2023-04-18T11:43:31.378Z,102542.06
2023-04-18T11:46:03.517Z,102541.53
2023-04-18T11:48:37.777Z,102541.81
2023-04-18T11:51:08.059Z,102544.75
2023-04-18T11:53:38.096Z,102548.13
2023-04-18T11:56:08.612Z,102552.38
2023-04-18T11:58:38.996Z,102557.09
2023-04-18T12:01:25.232Z,102554.16
2023-04-18T12:04:05.043Z,102566.97
2023-04-18T12:06:50.020Z,102562.13
2023-04-18T12:09:21.247Z,102552.50
2023-04-18T12:12:00.274Z,102574.38
2023-04-18T12:14:30.461Z,102568.75
2023-04-18T12:17:05.989Z,102582.59
2023-04-18T12:19:35.566Z,102589.41
2023-04-18T12:22:06.796Z,102572.38
2023-04-18T12:24:38.084Z,102568.91
2023-04-18T12:27:07.921Z,102568.56
2023-04-18T12:29:37.405Z,102584.00
2023-04-18T12:32:09.538Z,102588.72
2023-04-18T12:34:39.182Z,102590.06
2023-04-18T12:37:09.521Z,102597.28
2023-04-18T12:39:39.049Z,102591.31
2023-04-18T12:42:08.863Z,102599.94
2023-04-18T12:44:38.396Z,102594.22
2023-04-18T12:47:10.824Z,102590.53
2023-04-18T12:49:40.327Z,102595.00
2023-04-18T12:52:09.806Z,102595.44
2023-04-18T12:54:39.346Z,102597.47
2023-04-18T12:57:08.992Z,102602.34
2023-04-18T12:59:38.555Z,102603.78
2023-04-18T13:02:10.815Z,102593.19
2023-04-18T13:04:40.577Z,102597.41
2023-04-18T13:07:10.253Z,102615.56
2023-04-18T13:09:39.766Z,102639.56
2023-04-18T13:12:09.790Z,102681.28
2023-04-18T13:14:39.320Z,102682.97
2023-04-18T13:17:11.480Z,102687.56
2023-04-18T13:19:41.203Z,102695.53
2023-04-18T13:22:10.750Z,102681.09
2023-04-18T13:24:40.462Z,102660.66
2023-04-18T13:27:12.846Z,102654.16
2023-04-18T13:29:43.589Z,102671.63
2023-04-18T13:32:15.886Z,102678.38
2023-04-18T13:34:46.654Z,102687.84
2023-04-18T13:37:16.825Z,102681.56
2023-04-18T13:39:46.433Z,102698.69
2023-04-18T13:42:16.358Z,102693.53
2023-04-18T13:44:45.915Z,102691.44
2023-04-18T13:47:18.053Z,102697.13
2023-04-18T13:49:47.575Z,102689.75
2023-04-18T13:52:17.620Z,102699.69
2023-04-18T13:54:47.192Z,102693.41
2023-04-18T13:57:16.709Z,102703.59
2023-04-18T13:59:46.348Z,102696.72
2023-04-18T14:02:18.584Z,102679.44
2023-04-18T14:04:48.304Z,102686.00
2023-04-18T14:07:17.938Z,102690.47
2023-04-18T14:09:52.734Z,102672.94
2023-04-18T14:12:23.444Z,102669.03
2023-04-18T14:14:52.893Z,102658.06
2023-04-18T14:17:24.945Z,102654.13
2023-04-18T14:19:54.524Z,102649.75
2023-04-18T14:22:23.976Z,102647.22
2023-04-18T14:24:54.613Z,102638.78
2023-04-18T14:27:26.249Z,102650.25
2023-04-18T14:29:55.866Z,102635.09
2023-04-18T14:32:28.089Z,102630.66
2023-04-18T14:34:58.973Z,102632.16
2023-04-18T14:37:28.497Z,102622.38
2023-04-18T14:39:58.009Z,102634.69
2023-04-18T14:42:27.744Z,102638.38
2023-04-18T14:44:57.440Z,102654.09
2023-04-18T14:47:31.952Z,102640.16
2023-04-18T14:50:01.535Z,102629.38
2023-04-18T14:52:40.221Z,102615.44
2023-04-18T14:55:27.001Z,102628.53
2023-04-18T14:58:44.235Z,102637.00
2023-04-18T15:01:13.804Z,102644.03
2023-04-18T15:03:46.048Z,102662.97
2023-04-18T15:06:15.749Z,102657.56
2023-04-18T15:08:45.714Z,102653.59
2023-04-18T15:11:15.281Z,102637.97
2023-04-18T15:13:44.827Z,102650.03
2023-04-18T15:16:14.444Z,102639.06
2023-04-18T15:18:46.537Z,102626.47
2023-04-18T15:21:16.073Z,102629.94
2023-04-18T15:23:45.535Z,102641.28
2023-04-18T15:26:15.069Z,102631.75
2023-04-18T15:28:45.409Z,102639.31
2023-04-18T15:31:16.075Z,102649.19
2023-04-18T15:33:48.190Z,102636.53
2023-04-18T15:36:17.718Z,102619.66
2023-04-18T15:38:47.281Z,102618.47
2023-04-18T15:41:16.838Z,102603.31
2023-04-18T15:43:46.479Z,102604.91
2023-04-18T15:46:16.175Z,102594.53
2023-04-18T15:48:48.329Z,102585.41
2023-04-18T15:51:17.995Z,102583.63
2023-04-18T15:53:47.530Z,102590.75
2023-04-18T15:56:17.054Z,102596.50
2023-04-18T15:58:46.618Z,102588.13
2023-04-18T16:01:16.780Z,102602.03
2023-04-18T16:03:48.876Z,102598.16
2023-04-18T16:06:18.894Z,102590.78
2023-04-18T16:08:48.347Z,102580.81
2023-04-18T16:11:18.336Z,102577.91
2023-04-18T16:13:47.830Z,102580.59
2023-04-18T16:16:17.392Z,102581.97
2023-04-18T16:18:49.525Z,102576.00
2023-04-18T16:21:19.109Z,102569.44
2023-04-18T16:23:48.877Z,102575.16
2023-04-18T16:26:18.373Z,102576.34
2023-04-18T16:28:48.678Z,102579.84
2023-04-18T16:31:18.496Z,102566.69
2023-04-18T16:33:52.705Z,102550.69
2023-04-18T16:36:22.372Z,102554.16
2023-04-18T16:38:51.868Z,102552.41
2023-04-18T16:41:21.327Z,102548.59
2023-04-18T16:43:50.883Z,102546.88
2023-04-18T16:46:20.448Z,102552.16
2023-04-18T16:48:52.761Z,102543.09
2023-04-18T16:51:22.369Z,102548.13
2023-04-18T16:53:51.889Z,102543.59
2023-04-18T16:56:36.948Z,102532.75
2023-04-18T16:59:09.335Z,102543.66
2023-04-18T17:01:38.942Z,102539.06
2023-04-18T17:04:11.398Z,102535.34
2023-04-18T17:06:42.300Z,102526.19
2023-04-18T17:09:13.822Z,102517.56
2023-04-18T17:11:43.546Z,102517.88
2023-04-18T17:14:13.255Z,102516.09
2023-04-18T17:16:44.028Z,102515.41
2023-04-18T17:19:16.365Z,102509.25
2023-04-18T17:21:46.445Z,102512.50
2023-04-18T17:24:18.786Z,102496.69
2023-04-18T17:26:48.428Z,102495.69
2023-04-18T17:29:18.583Z,102484.84
2023-04-18T17:31:48.201Z,102483.69
2023-04-18T17:34:20.434Z,102482.03
2023-04-18T17:36:49.944Z,102469.56
2023-04-18T17:39:19.489Z,102476.75
2023-04-18T17:41:49.167Z,102469.78
2023-04-18T17:44:18.632Z,102464.72
2023-04-18T17:46:49.456Z,102464.31
2023-04-18T17:49:23.404Z,102465.22
2023-04-18T17:51:53.064Z,102475.44
2023-04-18T17:54:22.554Z,102472.94
2023-04-18T17:56:52.032Z,102472.28
2023-04-18T17:59:21.564Z,102480.41
2023-04-18T18:01:51.156Z,102479.59
2023-04-18T18:04:26.355Z,102480.25
2023-04-18T18:06:57.195Z,102481.06
2023-04-18T18:09:26.827Z,102486.41
2023-04-18T18:11:57.094Z,102495.00
2023-04-18T18:14:26.898Z,102497.53
2023-04-18T18:16:56.475Z,102508.25
2023-04-18T18:19:28.786Z,102519.28
2023-04-18T18:21:58.277Z,102527.16
2023-04-18T18:24:28.040Z,102536.72
2023-04-18T18:26:58.184Z,102540.59
2023-04-18T18:29:27.764Z,102554.00
2023-04-18T18:31:57.299Z,102564.22
2023-04-18T18:34:32.134Z,102585.69
2023-04-18T18:37:01.639Z,102601.63
2023-04-18T18:39:31.182Z,102624.53
2023-04-18T18:42:01.102Z,102649.22
2023-04-18T18:44:30.774Z,102648.19
2023-04-18T18:47:00.375Z,102662.31
2023-04-18T18:49:32.441Z,102674.13
2023-04-18T18:52:04.213Z,102686.09
2023-04-18T18:54:33.771Z,102706.78
2023-04-18T18:57:03.332Z,102718.59
2023-04-18T18:59:32.926Z,102726.50
2023-04-18T19:02:02.662Z,102748.63
2023-04-18T19:04:35.228Z,102753.75
2023-04-18T19:07:04.972Z,102759.81
2023-04-18T19:09:34.531Z,102763.50
2023-04-18T19:12:04.258Z,102771.69
2023-04-18T19:14:33.842Z,102783.25
2023-04-18T19:17:03.389Z,102780.16
2023-04-18T19:19:35.446Z,102775.94
2023-04-18T19:22:06.608Z,102775.41
2023-04-18T19:24:36.136Z,102781.44
2023-04-18T19:27:05.664Z,102782.09
2023-04-18T19:29:35.134Z,102779.09
2023-04-18T19:32:04.706Z,102780.38
2023-04-18T19:34:36.892Z,102779.63
2023-04-18T19:37:06.431Z,102775.78
2023-04-18T19:39:36.159Z,102782.72
2023-04-18T19:42:05.779Z,102776.03
2023-04-18T19:44:35.285Z,102769.25
2023-04-18T19:47:04.753Z,102772.69
2023-04-18T19:49:36.861Z,102769.09
2023-04-18T19:52:06.449Z,102763.34
2023-04-18T19:54:36.085Z,102777.59
2023-04-18T19:57:06.452Z,102783.50
2023-04-18T19:59:35.930Z,102783.22
2023-04-18T20:02:06.537Z,102780.50
2023-04-18T20:04:40.816Z,102772.31
2023-04-18T20:07:10.449Z,102773.72
2023-04-18T20:09:40.227Z,102785.94
2023-04-18T20:12:09.840Z,102797.56
2023-04-18T20:14:39.413Z,102812.13
2023-04-18T20:17:08.883Z,102828.72
2023-04-18T20:19:41.502Z,102839.25
2023-04-18T20:22:11.021Z,102838.81
2023-04-18T20:24:41.390Z,102848.13
2023-04-18T20:27:10.914Z,102870.88
2023-04-18T20:29:40.483Z,102876.81
2023-04-18T20:32:10.028Z,102887.69
2023-04-18T20:34:42.126Z,102891.28
2023-04-18T20:37:11.941Z,102901.28
2023-04-18T20:39:42.273Z,102884.91
2023-04-18T20:42:14.412Z,102873.16
2023-04-18T20:44:47.030Z,102871.06
2023-04-18T20:47:16.679Z,102873.63
2023-04-18T20:49:48.729Z,102844.84
2023-04-18T20:52:18.229Z,102827.84
2023-04-18T20:54:47.742Z,102815.03
2023-04-18T20:57:17.345Z,102802.22
2023-04-18T20:59:46.868Z,102782.84
2023-04-18T21:02:16.450Z,102768.94
2023-04-18T21:04:49.493Z,102734.34
2023-04-18T21:07:19.077Z,102731.06
2023-04-18T21:09:48.589Z,102719.91
2023-04-18T21:12:18.234Z,102718.41
2023-04-18T21:14:48.201Z,102702.47
2023-04-18T21:17:17.913Z,102695.19
2023-04-18T21:19:50.764Z,102695.06
2023-04-18T21:22:20.594Z,102689.66
2023-04-18T21:24:50.070Z,102679.31
2023-04-18T21:27:19.566Z,102674.81
2023-04-18T21:29:49.104Z,102672.09
2023-04-18T21:32:18.668Z,102669.72
2023-04-18T21:34:50.865Z,102677.53
2023-04-18T21:37:20.318Z,102666.41
2023-04-18T21:39:50.089Z,102666.41
2023-04-18T21:42:19.604Z,102668.69
2023-04-18T21:44:49.124Z,102664.03
2023-04-18T21:47:18.612Z,102664.81
2023-04-18T21:49:52.041Z,102666.03
2023-04-18T21:52:21.499Z,102671.34
2023-04-18T21:54:51.002Z,102675.38
2023-04-18T21:57:20.460Z,102675.84
2023-04-18T21:59:49.978Z,102685.16
2023-04-18T22:02:19.530Z,102686.53
2023-04-18T22:04:51.703Z,102688.53
2023-04-18T22:07:21.629Z,102693.22
2023-04-18T22:09:51.334Z,102718.47
2023-04-18T22:12:20.867Z,102722.91
2023-04-18T22:14:52.225Z,102726.81
2023-04-18T22:17:22.088Z,102736.16
2023-04-18T22:19:54.900Z,102742.38
2023-04-18T22:22:24.409Z,102746.72
2023-04-18T22:24:53.968Z,102759.09
2023-04-18T22:27:23.697Z,102771.13
2023-04-18T22:29:53.649Z,102801.81
2023-04-18T22:32:23.132Z,102791.69
2023-04-18T22:34:55.487Z,102803.91
2023-04-18T22:37:25.054Z,102809.34
2023-04-18T22:39:54.552Z,102813.25
2023-04-18T22:42:24.045Z,102820.91
2023-04-18T22:44:53.540Z,102843.63
2023-04-18T22:47:23.023Z,102837.91
2023-04-18T22:49:55.072Z,102829.34
2023-04-18T22:52:25.885Z,102817.00
2023-04-18T22:54:55.938Z,102822.28
2023-04-18T22:57:25.448Z,102823.31
2023-04-18T22:59:54.958Z,102820.03
2023-04-18T23:02:24.647Z,102825.84
2023-04-18T23:04:58.434Z,102838.22
2023-04-18T23:07:27.967Z,102823.03
2023-04-18T23:09:57.475Z,102837.19
2023-04-18T23:12:27.959Z,102827.38
2023-04-18T23:14:57.448Z,102829.19
2023-04-18T23:17:27.082Z,102811.44
2023-04-18T23:19:59.177Z,102800.91
2023-04-18T23:22:28.696Z,102793.97
2023-04-18T23:24:58.263Z,102794.13
2023-04-18T23:27:27.911Z,102801.78
2023-04-18T23:29:57.411Z,102809.94
2023-04-18T23:32:27.009Z,102831.28
2023-04-18T23:35:04.074Z,102847.53
2023-04-18T23:37:33.797Z,102852.34
2023-04-18T23:40:06.826Z,102848.88
2023-04-18T23:42:37.174Z,102861.38
2023-04-18T23:45:07.728Z,102878.53
2023-04-18T23:47:37.236Z,102877.50
2023-04-18T23:50:10.911Z,102881.84
2023-04-18T23:52:40.926Z,102883.94
2023-04-18T23:55:11.471Z,102881.53
2023-04-18T23:57:41.033Z,102871.28
